createdAt,value
2019-05-02T14:43:48.419Z,88.79
2019-05-02T14:45:05.507Z,88.79
2019-05-02T14:45:52.837Z,88.39
2019-05-02T14:46:49.035Z,88.49
2019-05-02T14:47:49.748Z,88.69
2019-05-02T14:48:49.022Z,89.00
2019-05-02T14:49:48.000Z,88.55
2019-05-02T14:50:47.983Z,88.49
2019-05-02T14:51:47.973Z,88.49
2019-05-02T14:52:47.965Z,88.28
2019-05-02T14:53:47.948Z,87.57
2019-05-02T14:54:48.231Z,87.67
2019-05-02T14:55:47.926Z,87.16
2019-05-02T14:56:48.098Z,87.77
2019-05-02T14:57:47.911Z,86.76
2019-05-02T14:58:47.894Z,87.37
2019-05-02T14:59:50.403Z,87.98
2019-05-02T15:00:48.868Z,87.57
2019-05-02T15:01:47.859Z,88.28
2019-05-02T15:02:49.365Z,88.28
2019-05-02T15:03:47.854Z,88.59
2019-05-02T15:04:49.004Z,88.79
2019-05-02T15:05:47.839Z,88.28
2019-05-02T15:06:47.801Z,87.26
2019-05-02T15:07:47.804Z,87.06
2019-05-02T15:08:47.789Z,87.41
2019-05-02T15:09:47.783Z,88.08
2019-05-02T15:10:52.976Z,88.53
2019-05-02T15:11:48.757Z,88.63
2019-05-02T15:12:53.526Z,88.22
2019-05-02T15:13:48.722Z,88.63
2019-05-02T15:14:49.712Z,88.12
2019-05-02T15:15:48.699Z,88.12
2019-05-02T15:16:49.664Z,87.41
2019-05-02T15:17:48.692Z,87.10
2019-05-02T15:18:52.435Z,86.08
2019-05-02T15:19:48.652Z,87.20
2019-05-02T15:20:47.643Z,87.00
2019-05-02T15:21:53.873Z,87.55
2019-05-02T15:22:48.656Z,87.24
2019-05-02T15:23:48.878Z,88.57
2019-05-02T15:24:47.597Z,87.71
2019-05-02T15:25:52.486Z,87.61
2019-05-02T15:26:48.572Z,87.82
2019-05-02T15:27:50.009Z,87.20
2019-05-02T15:28:48.571Z,88.63
2019-05-02T15:29:47.540Z,88.63
2019-05-02T15:30:49.457Z,88.73
2019-05-02T15:31:47.520Z,88.22
2019-05-02T15:32:47.508Z,87.61
2019-05-02T15:33:47.504Z,88.73
2019-05-02T15:34:47.989Z,88.43
2019-05-02T15:35:47.471Z,87.92
2019-05-02T15:36:47.461Z,88.02
2019-05-02T15:37:47.448Z,88.73
2019-05-02T15:38:47.624Z,88.02
2019-05-02T15:40:51.444Z,88.02
2019-05-02T15:41:48.732Z,88.22
2019-05-02T15:42:47.395Z,88.12
2019-05-02T15:43:49.215Z,88.47
2019-05-02T15:44:47.369Z,88.43
2019-05-02T15:45:47.377Z,89.25
2019-05-02T15:46:47.363Z,88.84
2019-05-02T15:47:47.336Z,89.04
2019-05-02T15:48:47.328Z,89.04
2019-05-02T15:49:50.028Z,88.63
2019-05-02T15:50:52.993Z,88.47
2019-05-02T15:51:50.015Z,88.57
2019-05-02T15:52:47.296Z,88.67
2019-05-02T15:53:49.826Z,89.59
2019-05-02T15:54:55.409Z,89.28
2019-05-02T15:55:50.015Z,89.18
2019-05-02T15:56:52.278Z,88.78
2019-05-02T15:57:49.424Z,89.18
2019-05-02T15:58:47.238Z,88.78
2019-05-02T15:59:47.202Z,89.39
2019-05-02T16:00:47.194Z,89.18
2019-05-02T16:01:48.030Z,88.88
2019-05-02T16:02:47.190Z,89.39
2019-05-02T16:03:47.162Z,88.88
2019-05-02T16:04:47.146Z,88.67
2019-05-02T16:05:47.208Z,89.08
2019-05-02T16:06:47.130Z,89.59
2019-05-02T16:07:47.256Z,90.06
2019-05-02T16:08:47.120Z,89.79
2019-05-02T16:09:47.099Z,89.34
2019-05-02T16:10:47.083Z,90.26
2019-05-02T16:11:47.885Z,89.04
2019-05-02T16:12:47.077Z,88.73
2019-05-02T16:13:51.442Z,89.25
2019-05-02T16:14:48.043Z,89.96
2019-05-02T16:15:47.037Z,89.96
2019-05-02T16:16:47.013Z,90.22
2019-05-02T16:17:46.999Z,89.30
2019-05-02T16:18:47.026Z,88.59
2019-05-02T16:19:47.012Z,88.18
2019-05-02T16:20:49.028Z,88.49
2019-05-02T16:21:46.952Z,88.59
2019-05-02T16:22:49.861Z,88.28
2019-05-02T16:23:46.964Z,88.28
2019-05-02T16:24:48.851Z,88.28
2019-05-02T16:25:46.908Z,88.08
2019-05-02T16:26:47.078Z,88.39
2019-05-02T16:27:46.893Z,89.16
2019-05-02T16:28:46.874Z,89.57
2019-05-02T16:29:46.862Z,88.75
2019-05-02T16:30:47.648Z,88.24
2019-05-02T16:31:46.869Z,88.59
2019-05-02T16:32:46.824Z,88.49
2019-05-02T16:33:49.733Z,88.79
2019-05-02T16:34:46.817Z,88.59
2019-05-02T16:35:52.810Z,89.00
2019-05-02T16:36:47.779Z,88.39
2019-05-02T16:37:51.326Z,88.49
2019-05-02T16:38:47.756Z,88.59
2019-05-02T16:39:49.616Z,89.20
2019-05-02T16:40:46.749Z,89.10
2019-05-02T16:41:49.299Z,88.79
2019-05-02T16:42:46.710Z,90.22
2019-05-02T16:43:46.730Z,89.30
2019-05-02T16:44:46.687Z,89.10
2019-05-02T16:45:46.699Z,88.59
2019-05-02T16:46:46.666Z,89.61
2019-05-02T16:47:49.661Z,89.00
2019-05-02T16:48:47.645Z,88.49
2019-05-02T16:49:47.939Z,89.10
2019-05-02T16:50:47.635Z,88.90
2019-05-02T16:51:46.611Z,90.32
2019-05-02T16:52:47.454Z,89.92
2019-05-02T16:53:46.592Z,89.00
2019-05-02T16:54:46.575Z,88.84
2019-05-02T16:55:46.629Z,89.55
2019-05-02T16:56:46.554Z,89.92
2019-05-02T16:57:46.557Z,89.71
2019-05-02T16:58:47.257Z,90.12
2019-05-02T16:59:46.528Z,90.42
2019-05-02T17:00:46.506Z,89.81
2019-05-02T17:01:46.540Z,89.92
2019-05-02T17:02:46.609Z,90.01
2019-05-02T17:03:46.493Z,89.81
2019-05-02T17:04:46.462Z,89.71
2019-05-02T17:05:49.398Z,90.32
2019-05-02T17:06:46.438Z,90.63
2019-05-02T17:07:46.445Z,90.26
2019-05-02T17:08:49.529Z,89.92
2019-05-02T17:09:47.420Z,90.32
2019-05-02T17:10:50.770Z,90.36
2019-05-02T17:11:47.379Z,90.16
2019-05-02T17:12:47.366Z,89.75
2019-05-02T17:13:47.376Z,90.16
2019-05-02T17:14:53.435Z,90.01
2019-05-02T17:15:47.339Z,90.26
2019-05-02T17:16:47.185Z,90.22
2019-05-02T17:17:47.324Z,89.92
2019-05-02T17:18:48.325Z,89.51
2019-05-02T17:19:47.304Z,89.86
2019-05-02T17:20:47.101Z,89.86
2019-05-02T17:21:55.489Z,90.36
2019-05-02T17:22:50.244Z,89.25
2019-05-02T17:23:48.392Z,90.22
2019-05-02T17:24:46.235Z,89.55
2019-05-02T17:25:46.239Z,89.61
2019-05-02T17:26:46.211Z,89.40
2019-05-02T17:27:46.200Z,89.14
2019-05-02T17:28:47.192Z,88.90
2019-05-02T17:29:46.175Z,89.30
2019-05-02T17:30:46.165Z,88.63
2019-05-02T17:31:50.135Z,89.10
2019-05-02T17:32:47.146Z,89.20
2019-05-02T17:33:50.492Z,89.20
2019-05-02T17:34:46.162Z,88.90
2019-05-02T17:35:49.944Z,89.00
2019-05-02T17:36:47.100Z,89.20
2019-05-02T17:37:48.732Z,89.10
2019-05-02T17:38:46.077Z,89.30
2019-05-02T17:39:46.255Z,89.20
2019-05-02T17:40:46.145Z,89.10
2019-05-02T17:41:46.041Z,89.00
2019-05-02T17:42:46.030Z,88.90
2019-05-02T17:43:46.031Z,88.79
2019-05-02T17:44:46.037Z,89.10
2019-05-02T17:45:47.815Z,88.69
2019-05-02T17:46:52.315Z,89.51
2019-05-02T17:47:47.370Z,89.71
2019-05-02T17:48:47.618Z,88.79
2019-05-02T17:49:46.948Z,88.79
2019-05-02T17:50:49.550Z,88.18
2019-05-02T17:51:46.951Z,88.28
2019-05-02T17:52:45.916Z,88.69
2019-05-02T17:53:49.705Z,88.39
2019-05-02T17:54:45.896Z,88.69
2019-05-02T17:55:45.887Z,88.18
2019-05-02T17:56:45.896Z,87.98
2019-05-02T17:57:45.874Z,86.45
2019-05-02T17:58:53.275Z,86.55
2019-05-02T17:59:46.853Z,86.24
2019-05-02T18:00:47.460Z,86.55
2019-05-02T18:01:46.811Z,86.76
2019-05-02T18:02:46.893Z,86.86
2019-05-02T18:03:46.791Z,87.06
2019-05-02T18:04:46.611Z,87.06
2019-05-02T18:05:46.805Z,86.86
2019-05-02T18:06:46.877Z,86.15
2019-05-02T18:07:46.757Z,86.24
2019-05-02T18:08:46.236Z,86.24
2019-05-02T18:09:45.725Z,86.35
2019-05-02T18:10:45.715Z,86.15
2019-05-02T18:11:45.708Z,84.34
2019-05-02T18:12:47.300Z,84.55
2019-05-02T18:13:46.696Z,84.14
2019-05-02T18:14:45.666Z,83.94
2019-05-02T18:15:45.660Z,84.20
2019-05-02T18:16:47.112Z,84.72
2019-05-02T18:17:46.633Z,84.66
2019-05-02T18:18:47.803Z,84.51
2019-05-02T18:19:45.792Z,80.78
2019-05-02T18:20:46.568Z,82.21
2019-05-02T18:21:45.777Z,83.33
2019-05-02T18:22:48.989Z,82.92
2019-05-02T18:23:45.567Z,82.51
2019-05-02T18:24:46.466Z,83.02
2019-05-02T18:25:45.600Z,82.61
2019-05-02T18:26:45.580Z,80.88
2019-05-02T18:27:45.534Z,79.45
2019-05-02T18:28:49.186Z,80.07
2019-05-02T18:29:45.808Z,80.98
2019-05-02T18:30:45.526Z,79.66
2019-05-02T18:31:47.634Z,80.47
2019-05-02T18:32:45.513Z,80.78
2019-05-02T18:33:45.483Z,79.86
2019-05-02T18:34:45.491Z,79.96
2019-05-02T18:35:46.997Z,80.16
2019-05-02T18:36:45.446Z,79.55
2019-05-02T18:37:46.911Z,78.84
2019-05-02T18:38:45.420Z,79.04
2019-05-02T18:39:50.935Z,78.16
2019-05-02T18:40:46.434Z,79.08
2019-05-02T18:41:46.496Z,80.00
2019-05-02T18:42:45.371Z,79.69
2019-05-02T18:43:45.469Z,79.49
2019-05-02T18:44:48.206Z,79.80
2019-05-02T18:45:46.437Z,79.90
2019-05-02T18:46:45.378Z,79.69
2019-05-02T18:47:45.542Z,79.39
2019-05-02T18:48:48.863Z,79.80
2019-05-02T18:49:45.317Z,79.69
2019-05-02T18:50:47.581Z,79.39
2019-05-02T18:51:48.389Z,79.90
2019-05-02T18:52:48.034Z,80.00
2019-05-02T18:53:45.224Z,79.90
2019-05-02T18:54:47.398Z,80.10
2019-05-02T18:55:45.203Z,79.63
2019-05-02T18:56:50.058Z,79.52
2019-05-02T18:57:46.217Z,80.04
2019-05-02T18:58:45.439Z,80.44
2019-05-02T18:59:45.162Z,79.73
2019-05-02T19:00:45.146Z,80.04
2019-05-02T19:01:47.351Z,80.04
2019-05-02T19:02:46.123Z,79.77
2019-05-02T19:03:47.116Z,78.71
2019-05-02T19:04:46.105Z,79.02
2019-05-02T19:05:46.629Z,79.73
2019-05-02T19:06:45.076Z,80.07
2019-05-02T19:07:47.304Z,79.57
2019-05-02T19:08:49.653Z,77.83
2019-05-02T19:09:51.171Z,77.83
2019-05-02T19:11:01.286Z,77.72
2019-05-02T19:11:46.018Z,76.09
2019-05-02T19:12:45.011Z,77.62
2019-05-02T19:13:45.039Z,77.31
2019-05-02T19:14:45.007Z,77.42
2019-05-02T19:15:48.800Z,76.60
2019-05-02T19:16:44.965Z,77.62
2019-05-02T19:17:44.955Z,77.86
2019-05-02T19:18:48.969Z,77.04
2019-05-02T19:19:45.948Z,75.82
2019-05-02T19:20:55.409Z,77.45
2019-05-02T19:21:45.947Z,77.56
2019-05-02T19:22:50.759Z,76.53
2019-05-02T19:23:45.886Z,75.71
2019-05-02T19:24:44.873Z,76.12
2019-05-02T19:25:44.877Z,77.45
2019-05-02T19:26:49.412Z,77.49
2019-05-02T19:27:45.869Z,77.39
2019-05-02T19:28:44.830Z,77.86
2019-05-02T19:29:48.158Z,77.19
2019-05-02T19:30:44.804Z,77.19
2019-05-02T19:31:46.343Z,77.49
2019-05-02T19:32:44.785Z,77.70
2019-05-02T19:33:44.802Z,78.14
2019-05-02T19:34:44.760Z,78.11
2019-05-02T19:35:46.848Z,78.14
2019-05-02T19:36:44.787Z,78.75
2019-05-02T19:37:47.779Z,77.83
2019-05-02T19:38:44.715Z,77.73
2019-05-02T19:39:48.661Z,77.53
2019-05-02T19:40:44.692Z,76.20
2019-05-02T19:41:45.705Z,77.22
2019-05-02T19:42:45.051Z,77.53
2019-05-02T19:43:49.414Z,78.14
2019-05-02T19:44:45.646Z,77.53
2019-05-02T19:45:45.732Z,78.24
2019-05-02T19:46:45.627Z,78.24
2019-05-02T19:47:48.977Z,78.14
2019-05-02T19:48:44.617Z,76.20
2019-05-02T19:49:47.157Z,77.63
2019-05-02T19:50:45.576Z,77.32
2019-05-02T19:51:44.598Z,77.53
2019-05-02T19:52:44.555Z,77.73
2019-05-02T19:53:44.549Z,77.63
2019-05-02T19:54:44.538Z,77.46
2019-05-02T19:55:44.539Z,77.12
2019-05-02T19:56:47.429Z,75.72
2019-05-02T19:57:44.683Z,76.23
2019-05-02T19:58:46.664Z,77.22
2019-05-02T19:59:44.476Z,77.42
2019-05-02T20:00:46.226Z,78.45
2019-05-02T20:01:44.466Z,78.49
2019-05-02T20:02:44.443Z,77.67
2019-05-02T20:03:44.431Z,77.87
2019-05-02T20:04:44.460Z,77.46
2019-05-02T20:05:44.413Z,77.63
2019-05-02T20:06:44.399Z,77.53
2019-05-02T20:07:44.389Z,77.83
2019-05-02T20:08:44.375Z,77.53
2019-05-02T20:09:47.257Z,77.94
2019-05-02T20:10:44.393Z,77.73
2019-05-02T20:11:44.341Z,77.67
2019-05-02T20:12:48.386Z,76.95
2019-05-02T20:13:45.314Z,77.15
2019-05-02T20:14:47.510Z,77.63
2019-05-02T20:15:44.312Z,78.08
2019-05-02T20:16:45.828Z,77.97
2019-05-02T20:17:44.275Z,78.79
2019-05-02T20:18:47.097Z,79.00
2019-05-02T20:19:44.249Z,78.24
2019-05-02T20:20:44.244Z,77.76
2019-05-02T20:21:44.247Z,77.67
2019-05-02T20:22:44.642Z,77.56
2019-05-02T20:23:44.206Z,77.67
2019-05-02T20:24:44.193Z,77.97
2019-05-02T20:25:44.183Z,77.56
2019-05-02T20:26:46.658Z,78.38
2019-05-02T20:27:45.173Z,78.49
2019-05-02T20:28:44.186Z,78.08
2019-05-02T20:29:44.139Z,78.59
2019-05-02T20:30:44.127Z,78.17
2019-05-02T20:31:44.115Z,79.41
2019-05-02T20:32:44.125Z,79.20
2019-05-02T20:33:44.095Z,79.30
2019-05-02T20:34:44.140Z,79.82
2019-05-02T20:35:44.071Z,80.02
2019-05-02T20:36:44.058Z,80.02
2019-05-02T20:37:44.051Z,80.12
2019-05-02T20:38:44.114Z,81.15
2019-05-02T20:39:44.040Z,80.94
2019-05-02T20:40:44.057Z,81.24
2019-05-02T20:41:44.015Z,82.57
2019-05-02T20:42:44.009Z,82.37
2019-05-02T20:43:44.930Z,81.76
2019-05-02T20:44:43.996Z,81.51
2019-05-02T20:45:46.163Z,80.63
2019-05-02T20:46:43.983Z,81.15
2019-05-02T20:47:43.954Z,80.74
2019-05-02T20:48:43.943Z,81.04
2019-05-02T20:49:43.947Z,82.07
2019-05-02T20:50:43.929Z,81.45
2019-05-02T20:51:43.914Z,81.76
2019-05-02T20:52:43.920Z,82.07
2019-05-02T20:53:43.888Z,82.68
2019-05-02T20:54:43.874Z,81.76
2019-05-02T20:55:43.879Z,81.65
2019-05-02T20:56:43.854Z,81.35
2019-05-02T20:57:43.844Z,81.45
2019-05-02T20:58:43.851Z,80.77
2019-05-02T20:59:43.822Z,79.64
2019-05-02T21:00:43.815Z,80.57
2019-05-02T21:01:43.807Z,80.57
2019-05-02T21:02:43.794Z,81.18
2019-05-02T21:03:43.778Z,82.41
2019-05-02T21:04:43.797Z,82.31
2019-05-02T21:08:11.158Z,82.65
2019-05-02T21:09:11.118Z,83.06
2019-05-02T21:10:12.491Z,82.35
2019-05-02T21:11:12.447Z,83.06
2019-05-02T21:12:12.628Z,82.55
2019-05-02T21:13:12.649Z,83.68
2019-05-02T21:14:12.311Z,83.68
2019-05-02T21:15:12.436Z,83.27
2019-05-02T21:16:12.454Z,82.96
2019-05-02T21:17:12.736Z,83.58
2019-05-02T21:18:11.706Z,83.68
2019-05-02T21:19:12.378Z,84.70
2019-05-02T21:20:12.464Z,84.50
2019-05-02T21:21:12.653Z,84.70
2019-05-02T21:22:10.959Z,84.29
2019-05-02T21:23:10.954Z,83.98
2019-05-02T21:24:10.935Z,83.68
2019-05-02T21:25:12.863Z,83.47
2019-05-02T21:26:10.940Z,84.39
2019-05-02T21:27:10.900Z,83.06
2019-05-02T21:28:11.925Z,82.76
2019-05-02T21:29:12.140Z,83.47
2019-05-02T21:30:12.337Z,83.47
2019-05-02T21:31:12.132Z,82.65
2019-05-02T21:32:12.055Z,82.45
2019-05-02T21:33:11.761Z,82.65
2019-05-02T21:34:11.711Z,83.17
2019-05-02T21:35:11.936Z,82.35
2019-05-02T21:36:12.011Z,82.55
2019-05-02T21:37:10.787Z,82.76
2019-05-02T21:38:11.891Z,82.35
2019-05-02T21:39:11.859Z,82.69
2019-05-02T21:40:11.851Z,82.79
2019-05-02T21:41:10.749Z,82.69
2019-05-02T21:42:10.732Z,83.10
2019-05-02T21:43:10.721Z,81.98
2019-05-02T21:44:10.713Z,81.36
2019-05-02T21:45:12.983Z,81.87
2019-05-02T21:46:10.705Z,81.98
2019-05-02T21:47:10.683Z,83.10
2019-05-02T21:48:10.667Z,82.49
2019-05-02T21:49:12.053Z,82.69
2019-05-02T21:50:12.305Z,83.10
2019-05-02T21:51:12.119Z,82.59
2019-05-02T21:52:11.882Z,81.63
2019-05-02T21:53:12.588Z,81.26
2019-05-02T21:54:12.200Z,81.57
2019-05-02T21:55:12.349Z,81.77
2019-05-02T21:56:12.327Z,81.67
2019-05-02T21:57:12.152Z,81.77
2019-05-02T21:58:12.098Z,82.08
2019-05-02T21:59:12.156Z,81.98
2019-05-02T22:00:11.661Z,82.49
2019-05-02T22:01:12.756Z,83.20
2019-05-02T22:02:11.887Z,81.87
2019-05-02T22:03:12.508Z,81.67
2019-05-02T22:04:10.488Z,82.49
2019-05-02T22:05:10.463Z,82.90
2019-05-02T22:06:12.215Z,82.69
2019-05-02T22:07:12.192Z,83.10
2019-05-02T22:08:12.157Z,82.59
2019-05-02T22:09:12.328Z,82.59
2019-05-02T22:10:12.133Z,82.69
2019-05-02T22:11:12.169Z,82.63
2019-05-02T22:12:11.984Z,81.87
2019-05-02T22:13:10.416Z,81.91
2019-05-02T22:14:10.385Z,82.49
2019-05-02T22:15:10.375Z,83.00
2019-05-02T22:16:10.373Z,83.00
2019-05-02T22:17:10.348Z,82.73
2019-05-02T22:18:10.344Z,83.31
2019-05-02T22:19:10.361Z,82.79
2019-05-02T22:20:12.251Z,82.49
2019-05-02T22:21:12.190Z,82.69
2019-05-02T22:22:12.113Z,82.59
2019-05-02T22:23:11.788Z,82.49
2019-05-02T22:24:12.322Z,82.73
2019-05-02T22:25:11.605Z,82.59
2019-05-02T22:26:10.265Z,82.59
2019-05-02T22:27:12.250Z,82.69
2019-05-02T22:28:12.103Z,82.69
2019-05-02T22:29:12.214Z,82.63
2019-05-02T22:30:11.961Z,83.04
2019-05-02T22:31:12.167Z,83.10
2019-05-02T22:32:12.186Z,83.14
2019-05-02T22:33:11.874Z,82.83
2019-05-02T22:34:10.204Z,82.59
2019-05-02T22:35:11.938Z,82.63
2019-05-02T22:36:10.124Z,83.04
2019-05-02T22:37:10.130Z,82.63
2019-05-02T22:38:11.708Z,82.73
2019-05-02T22:39:10.126Z,82.83
2019-05-02T22:40:10.096Z,82.73
2019-05-02T22:41:10.089Z,82.73
2019-05-02T22:42:10.066Z,82.73
2019-05-02T22:43:10.050Z,82.97
2019-05-02T22:44:10.068Z,83.04
2019-05-02T22:45:12.406Z,82.93
2019-05-02T22:46:10.034Z,83.07
2019-05-02T22:47:11.810Z,83.18
2019-05-02T22:48:14.088Z,83.07
2019-05-02T22:49:11.511Z,82.77
2019-05-02T22:50:10.033Z,82.97
2019-05-02T22:51:12.004Z,82.67
2019-05-02T22:52:09.975Z,82.87
2019-05-02T22:53:12.026Z,83.69
2019-05-02T22:54:23.298Z,84.10
2019-05-02T22:55:11.927Z,84.41
2019-05-02T22:56:11.804Z,84.00
2019-05-02T22:57:11.551Z,83.69
2019-05-02T22:58:09.932Z,83.49
2019-05-02T22:59:09.910Z,84.72
2019-05-02T23:00:09.927Z,84.34
2019-05-02T23:01:09.882Z,84.86
2019-05-02T23:02:09.872Z,85.03
2019-05-02T23:03:09.866Z,85.06
2019-05-02T23:04:09.844Z,84.55
2019-05-02T23:05:09.844Z,84.96
2019-05-02T23:06:09.828Z,85.06
2019-05-02T23:07:09.824Z,85.13
2019-05-02T23:08:09.809Z,85.17
2019-05-02T23:09:09.805Z,85.23
2019-05-02T23:10:09.789Z,85.23
2019-05-02T23:11:09.768Z,84.92
2019-05-02T23:12:09.764Z,84.96
2019-05-02T23:13:09.754Z,84.82
2019-05-02T23:14:09.729Z,84.92
2019-05-02T23:15:09.785Z,85.13
2019-05-02T23:16:09.719Z,84.92
2019-05-02T23:17:09.701Z,85.13
2019-05-02T23:18:09.691Z,84.92
2019-05-02T23:19:11.976Z,84.41
2019-05-02T23:20:09.688Z,84.92
2019-05-02T23:21:09.675Z,84.92
2019-05-02T23:22:10.240Z,85.23
2019-05-02T23:23:09.661Z,85.03
2019-05-02T23:24:09.633Z,85.23
2019-05-02T23:25:11.619Z,84.82
2019-05-02T23:26:09.604Z,85.03
2019-05-02T23:27:13.119Z,85.23
2019-05-02T23:28:09.622Z,84.82
2019-05-02T23:29:09.572Z,84.61
2019-05-02T23:30:11.580Z,85.13
2019-05-02T23:31:11.484Z,85.23
2019-05-02T23:32:09.534Z,85.13
2019-05-02T23:33:09.535Z,85.33
2019-05-02T23:34:09.558Z,85.13
2019-05-02T23:35:09.525Z,85.13
2019-05-02T23:36:09.524Z,84.82
2019-05-02T23:37:09.486Z,85.54
2019-05-02T23:38:09.489Z,85.03
2019-05-02T23:39:09.484Z,85.23
2019-05-02T23:40:09.460Z,85.64
2019-05-02T23:41:09.454Z,85.64
2019-05-02T23:42:09.432Z,86.05
2019-05-02T23:43:09.421Z,85.03
2019-05-02T23:44:09.414Z,85.13
2019-05-02T23:45:09.414Z,85.44
2019-05-02T23:46:09.391Z,85.64
2019-05-02T23:47:09.384Z,85.23
2019-05-02T23:48:09.382Z,85.23
2019-05-02T23:49:09.352Z,85.23
2019-05-02T23:50:09.363Z,85.44
2019-05-02T23:51:09.326Z,85.03
2019-05-02T23:52:09.318Z,85.23
2019-05-02T23:53:09.322Z,85.23
2019-05-02T23:54:09.289Z,85.23
2019-05-02T23:55:09.294Z,85.19
2019-05-02T23:56:09.289Z,85.13
2019-05-02T23:57:09.269Z,85.03
2019-05-02T23:58:09.289Z,85.44
2019-05-02T23:59:09.258Z,84.92
